Aérodrome :
LOGIN :

S'inscrire | Disclaimer

   EN    FR    IT 

 










Légende :    VFR   VFR Marginal   IFR   IFR Intensif   IFR Très Intensif
Visi : 
Plafond : 
>= 8 km
>= 3000ft
5 à 8 km
1000 à 3000 ft
1500m à 5 km
500 à 1000 ft
800 à 1500m
200 à 500 ft
< 800m
< 200 ft
Symboles :   Orages  Brouillard  Fortes neiges  Fortes précipitations  Vent > 20 kt
SIGMETs :   Divers  Orages  Givrage  Turbulence  Onde Orograph.  Cendres Volcan.







- Altitude de l'aérodrome : 425 ft
- Code IATA : DTM


EDLW - Dortmund

DERNIER METAR :
  • 100220Z AUTO 26010KT 9999 // FEW034/// BKN074/// BKN087/// 05/02 Q1015

METARs EXPIRÉS :
  • 100150Z AUTO 27008KT 230V320 9999 // FEW034/// BKN078/// 05/02 Q1015
  • 100120Z AUTO 27010KT 240V310 9999 // FEW038/// BKN053/// 05/02 Q1015
  • 100050Z AUTO 27008KT 230V320 9999 // FEW019/// SCT062/// BKN077/// 05/03 Q1014
  • 100020Z AUTO 27011KT 230V330 9999 // SCT019/// BKN051/// BKN067/// 05/02 Q1014
  • 092350Z AUTO 27010G20KT 230V310 9999 // SCT031/// SCT035/// OVC051/// 05/02 Q1013

TAF TAF EDLW
Valide du 09 à 18h jusqu'au 10 à 18h UTC


091700Z 0918/1018 28012KT 9999 SCT012 BKN020
TEMPO 0918/0922 28015G25KT
PROB30
TEMPO 0918/1006 BKN012
TEMPO 1009/1015 28015G25KT
Pas de NOTAMs connus pour ce terrain.



MET'MAP, la Météo Aéronautique d'un coup d'oeil ! - Copyright ORBIFLY Décembre 2007 - Disclaimer

ORBIFLY MET'MAP TEAM :

Programmation & Développement : Alexandra Zaïnal
Conception & Développement : Baudouin d'Aumeries
Co-Programmation & Développement : Marc-Olivier Méhu
Soutien technique & logistique : Manuel Goepfert

Contact : metmap@orbifly.com




SOURCES & CREDITS :

   NOAA